Time;durP1;ratioP1;P1;durP2;ratioP2;P2;SDS_P1;SDS_P2;PMS_P1;PMS_P2;Temp;Humidity;BMP_temperature;BMP_pressure;BME280_temperature;BME280_humidity;BME280_pressure;Samples;Min_cycle;Max_cycle;Signal;HPM_P1;HPM_P2
2022/02/22 00:00:51;;;;;;;28.23;13.93;;;;;;;11.14;58.94;93755.69;4975645;28;20483;-81
2022/02/22 00:03:16;;;;;;;23.50;14.35;;;;;;;11.24;58.47;93760.91;4975021;28;20039;-81
2022/02/22 00:05:42;;;;;;;25.08;13.85;;;;;;;11.34;57.53;93758.28;4959482;28;20035;-82
2022/02/22 00:08:07;;;;;;;23.90;15.10;;;;;;;11.27;57.80;93755.19;4958504;28;20379;-81
2022/02/22 00:10:33;;;;;;;24.60;16.90;;;;;;;11.31;57.82;93756.22;4975830;28;20054;-82
2022/02/22 00:12:58;;;;;;;27.48;15.80;;;;;;;11.28;57.48;93741.13;4959456;28;20066;-81
2022/02/22 00:15:24;;;;;;;29.00;15.48;;;;;;;11.19;58.04;93744.50;4975049;28;20034;-82
2022/02/22 00:17:49;;;;;;;26.67;17.35;;;;;;;11.28;57.88;93750.75;4976428;28;20031;-82
2022/02/22 00:20:16;;;;;;;26.83;16.92;;;;;;;11.32;57.91;93746.56;4976048;28;20143;-81
2022/02/22 00:25:12;;;;;;;37.25;15.93;;;;;;;11.24;57.97;93742.69;4989868;23;20079;-81
2022/02/22 00:27:42;;;;;;;27.25;16.23;;;;;;;11.21;57.63;93751.00;4959523;28;20071;-81
2022/02/22 00:30:09;;;;;;;29.08;15.38;;;;;;;11.18;57.99;93748.91;4942226;29;20038;-81
2022/02/22 00:32:34;;;;;;;23.25;14.10;;;;;;;11.18;57.84;93748.91;4926759;29;20038;-81
2022/02/22 00:34:59;;;;;;;24.27;15.73;;;;;;;11.07;58.10;93740.34;4960454;29;20042;-81
2022/02/22 00:37:25;;;;;;;26.48;14.85;;;;;;;10.85;58.84;93742.41;4961032;29;20028;-81
2022/02/22 00:39:50;;;;;;;29.58;15.35;;;;;;;10.89;58.45;93743.44;4960123;29;20035;-80
2022/02/22 00:42:16;;;;;;;27.25;14.90;;;;;;;11.00;58.80;93739.03;4944267;29;20079;-81
2022/02/22 00:44:42;;;;;;;27.08;16.05;;;;;;;11.10;58.31;93739.06;4961067;28;20035;-80
2022/02/22 00:47:08;;;;;;;21.70;15.07;;;;;;;11.14;57.91;93732.28;4942821;29;20031;-81
2022/02/22 00:49:33;;;;;;;21.60;13.43;;;;;;;11.18;57.96;93735.91;4935222;29;20035;-82
2022/02/22 00:51:59;;;;;;;30.92;15.70;;;;;;;11.28;57.86;93727.34;4942884;29;20050;-82
2022/02/22 00:54:24;;;;;;;26.42;13.98;;;;;;;11.33;57.33;93722.88;4943323;29;20262;-82
2022/02/22 00:56:50;;;;;;;21.08;13.40;;;;;;;11.33;57.39;93722.88;4959136;29;20047;-82
2022/02/22 00:59:15;;;;;;;29.48;15.82;;;;;;;11.42;57.16;93733.56;4960462;29;20043;-82
2022/02/22 01:01:41;;;;;;;42.65;18.83;;;;;;;11.49;57.40;93725.47;4959483;29;20035;-81
2022/02/22 01:04:06;;;;;;;25.98;14.40;;;;;;;11.48;57.01;93723.91;4961372;28;20061;-81
2022/02/22 01:06:32;;;;;;;32.53;14.65;;;;;;;11.49;57.34;93736.66;4959353;29;20086;-81
2022/02/22 01:08:59;;;;;;;26.10;15.35;;;;;;;11.54;56.88;93733.25;4960132;28;20090;-82
2022/02/22 01:11:25;;;;;;;28.13;16.30;;;;;;;11.56;57.22;93728.59;4943946;29;20035;-82
2022/02/22 01:13:50;;;;;;;25.42;15.55;;;;;;;11.39;57.34;93727.06;4943994;29;20093;-82
2022/02/22 01:16:16;;;;;;;29.48;16.67;;;;;;;11.25;58.25;93720.84;4944340;29;20023;-82
2022/02/22 01:18:41;;;;;;;26.25;14.80;;;;;;;11.23;57.66;93717.72;4961641;28;20047;-81
2022/02/22 01:21:07;;;;;;;24.13;14.23;;;;;;;11.19;58.03;93716.66;4960928;29;20087;-81
2022/02/22 01:23:32;;;;;;;22.27;15.20;;;;;;;11.06;58.83;93732.78;4959599;29;20046;-81
2022/02/22 01:25:59;;;;;;;27.45;14.90;;;;;;;11.08;59.01;93726.31;4935177;29;20031;-81
2022/02/22 01:28:25;;;;;;;21.83;14.32;;;;;;;11.10;58.81;93723.44;5034699;23;20051;-81
2022/02/22 01:30:50;;;;;;;28.42;15.05;;;;;;;11.11;58.29;93720.56;4950994;29;20046;-81
2022/02/22 01:33:16;;;;;;;25.65;16.08;;;;;;;10.94;59.15;93711.47;4966998;28;20043;-82
2022/02/22 01:35:42;;;;;;;22.88;15.32;;;;;;;10.65;60.41;93716.41;4948839;28;20122;-81
2022/02/22 01:38:07;;;;;;;24.23;15.40;;;;;;;10.72;60.22;93728.09;4950386;29;20617;-81
2022/02/22 01:40:32;;;;;;;26.30;15.50;;;;;;;10.84;59.89;93725.25;4949064;29;20624;-81
2022/02/22 01:42:59;;;;;;;25.63;14.57;;;;;;;10.90;59.86;93719.03;4933804;29;20381;-80
2022/02/22 01:45:25;;;;;;;28.08;15.98;;;;;;;11.01;59.27;93719.78;4949843;29;20067;-81
2022/02/22 01:47:51;;;;;;;31.40;17.52;;;;;;;11.07;58.96;93729.19;4948848;28;20039;-81
2022/02/22 01:50:16;;;;;;;23.75;15.75;;;;;;;11.11;59.14;93735.41;4952065;29;20046;-81
2022/02/22 01:52:42;;;;;;;44.47;18.25;;;;;;;11.12;58.99;93736.97;4952232;29;20035;-81
2022/02/22 01:55:08;;;;;;;38.22;19.83;;;;;;;11.19;59.19;93732.25;4952758;29;20039;-81
2022/02/22 01:57:34;;;;;;;31.88;16.30;;;;;;;11.23;58.66;93738.53;4950882;29;20407;-80
2022/02/22 02:02:31;;;;;;;24.33;14.55;;;;;;;11.18;58.22;93735.91;4990621;23;20114;-81
2022/02/22 02:04:56;;;;;;;25.92;15.60;;;;;;;11.08;58.68;93738.53;4968648;28;20479;-81
2022/02/22 02:07:22;;;;;;;24.98;15.20;;;;;;;10.94;59.05;93737.50;4968242;28;20463;-81
2022/02/22 02:09:47;;;;;;;24.17;12.15;;;;;;;10.71;59.17;93742.13;4935540;28;20474;-81
2022/02/22 02:12:12;;;;;;;22.55;12.27;;;;;;;10.54;60.16;93736.38;4950039;28;20039;-81
2022/02/22 02:14:38;;;;;;;24.77;12.73;;;;;;;10.39;60.47;93725.97;4967841;28;20031;-81
2022/02/22 02:17:03;;;;;;;23.83;12.32;;;;;;;10.23;61.32;93730.34;4968495;28;20031;-81
2022/02/22 02:19:29;;;;;;;21.35;12.52;;;;;;;10.01;62.20;93737.50;4937726;28;20089;-81
2022/02/22 02:22:01;;;;;;;20.65;11.27;;;;;;;9.86;62.79;93730.44;4949341;28;20037;-80
2022/02/22 02:24:27;;;;;;;18.80;10.13;;;;;;;9.74;63.57;93732.44;4956806;28;20050;-81
2022/02/22 02:26:53;;;;;;;23.98;11.20;;;;;;;9.73;62.96;93733.47;4966415;28;20470;-81
2022/02/22 02:29:24;;;;;;;19.23;10.63;;;;;;;9.69;63.86;93725.44;4915155;23;20156;-81
2022/02/22 02:31:51;;;;;;;24.45;10.98;;;;;;;9.79;63.72;93729.91;4918708;29;20079;-81
2022/02/22 02:34:19;;;;;;;19.70;10.25;;;;;;;9.89;63.23;93725.50;4917018;29;20552;-81
2022/02/22 02:36:44;;;;;;;27.73;16.17;;;;;;;9.97;63.53;93733.88;4901317;29;20040;-81
2022/02/22 02:39:14;;;;;;;32.15;17.42;;;;;;;10.07;63.19;93728.69;4917674;29;20036;-80
2022/02/22 02:41:40;;;;;;;19.95;11.40;;;;;;;10.07;62.71;93734.66;4917783;29;20039;-80
2022/02/22 02:44:09;;;;;;;22.23;11.50;;;;;;;10.17;63.19;93736.53;4918033;29;20024;-80
2022/02/22 02:46:35;;;;;;;22.58;12.23;;;;;;;10.30;63.08;93741.28;4917978;29;20028;-81
2022/02/22 02:49:00;;;;;;;19.90;11.90;;;;;;;10.37;62.36;93747.00;4922058;29;20047;-79
2022/02/22 02:51:26;;;;;;;17.63;11.32;;;;;;;10.46;61.98;93739.50;4894566;29;20056;-79
2022/02/22 02:53:52;;;;;;;21.80;13.90;;;;;;;10.58;62.02;93741.88;4926215;29;20036;-79
2022/02/22 02:56:22;;;;;;;39.13;22.92;;;;;;;10.63;62.17;93737.47;4920066;29;20036;-81
2022/02/22 02:58:49;;;;;;;46.80;28.95;;;;;;;10.64;62.13;93741.63;4919739;29;20449;-81
2022/02/22 03:01:15;;;;;;;38.15;22.50;;;;;;;10.70;62.03;93737.97;4919448;29;20035;-80
2022/02/22 03:03:40;;;;;;;25.35;15.88;;;;;;;10.70;62.00;93740.56;4916883;29;20104;-80
2022/02/22 03:06:05;;;;;;;26.20;14.80;;;;;;;10.76;62.20;93734.34;4917389;29;20051;-80
2022/02/22 03:08:31;;;;;;;28.10;15.80;;;;;;;10.78;61.46;93741.91;4932578;29;20047;-80
2022/02/22 03:10:56;;;;;;;23.58;15.38;;;;;;;10.80;61.56;93743.19;4932874;29;20055;-81
2022/02/22 03:13:22;;;;;;;42.53;18.33;;;;;;;10.78;61.98;93742.69;4917944;29;20115;-80
2022/02/22 03:15:47;;;;;;;37.92;17.13;;;;;;;10.82;61.71;93748.13;4916355;29;20056;-81
2022/02/22 03:18:13;;;;;;;26.38;14.65;;;;;;;10.81;62.03;93749.97;4916769;29;20036;-81
2022/02/22 03:20:38;;;;;;;19.88;12.25;;;;;;;10.88;61.36;93749.69;4933175;29;20076;-81
2022/02/22 03:23:04;;;;;;;22.67;11.70;;;;;;;10.84;61.48;93756.47;4917867;29;20028;-81
2022/02/22 03:25:29;;;;;;;23.70;11.55;;;;;;;10.83;61.77;93750.47;4954209;23;20090;-81
2022/02/22 03:27:54;;;;;;;16.08;10.18;;;;;;;10.82;61.49;93759.31;4968600;28;20042;-80
2022/02/22 03:30:20;;;;;;;22.40;11.65;;;;;;;10.81;61.96;93752.56;4959934;28;20035;-80
2022/02/22 03:32:46;;;;;;;31.13;15.00;;;;;;;10.83;61.30;93753.06;4940813;29;20047;-81
2022/02/22 03:35:11;;;;;;;26.15;14.13;;;;;;;10.85;61.39;93752.03;4956721;28;20038;-81
2022/02/22 03:37:37;;;;;;;22.08;10.70;;;;;;;10.82;61.95;93751.53;4954611;29;20039;-81
2022/02/22 03:40:03;;;;;;;18.40;11.52;;;;;;;10.76;62.11;93755.16;4955999;29;20039;-81
2022/02/22 03:42:28;;;;;;;22.77;10.85;;;;;;;10.71;62.42;93747.34;4954920;29;20436;-81
2022/02/22 03:44:54;;;;;;;27.80;10.82;;;;;;;10.65;63.03;93758.78;4957663;29;20480;-81
2022/02/22 03:47:19;;;;;;;21.88;12.07;;;;;;;10.68;63.29;93763.44;4956303;29;20050;-81
2022/02/22 03:49:45;;;;;;;37.45;20.15;;;;;;;10.77;62.95;93756.72;4940734;29;20035;-81
2022/02/22 03:52:10;;;;;;;22.40;12.77;;;;;;;10.76;63.04;93759.59;4956641;29;20031;-81
2022/02/22 03:54:36;;;;;;;30.52;16.52;;;;;;;10.78;62.89;93760.88;4956427;28;20035;-81
2022/02/22 03:57:02;;;;;;;39.03;17.75;;;;;;;10.77;63.73;93769.72;4938895;29;20455;-81
2022/02/22 03:59:28;;;;;;;26.08;15.60;;;;;;;10.76;63.69;93760.38;4956834;28;20063;-81
2022/02/22 04:01:54;;;;;;;18.80;10.02;;;;;;;10.72;63.90;93763.72;4954912;29;20035;-81
2022/02/22 04:04:19;;;;;;;16.38;10.15;;;;;;;10.65;64.45;93763.97;4957644;29;20870;-81
2022/02/22 04:06:45;;;;;;;16.13;10.50;;;;;;;10.63;64.52;93767.88;4956405;29;20039;-81
2022/02/22 04:09:10;;;;;;;13.15;9.18;;;;;;;10.62;64.69;93763.72;4957590;28;20031;-80
2022/02/22 04:11:35;;;;;;;20.50;12.82;;;;;;;10.59;65.03;93765.00;4956387;28;20142;-81
2022/02/22 04:14:01;;;;;;;11.52;7.90;;;;;;;10.64;64.70;93754.63;4957860;28;20423;-80
2022/02/22 04:16:27;;;;;;;11.55;7.45;;;;;;;10.60;65.25;93758.78;4956956;29;20031;-81
2022/02/22 04:18:52;;;;;;;12.55;7.40;;;;;;;10.47;66.15;93752.25;4925246;29;20061;-81
2022/02/22 04:21:17;;;;;;;6.90;6.20;;;;;;;10.34;66.50;93757.91;4955689;29;20043;-81
2022/02/22 04:23:43;;;;;;;11.35;6.43;;;;;;;10.33;66.22;93771.94;4914913;29;20035;-81
2022/02/22 04:26:08;;;;;;;15.55;7.53;;;;;;;10.34;66.78;93780.53;4947298;29;20090;-80
2022/02/22 04:28:34;;;;;;;16.02;7.68;;;;;;;10.38;66.82;93781.56;4915502;28;20043;-81
2022/02/22 04:30:59;;;;;;;12.77;7.20;;;;;;;10.38;66.52;93789.38;4913714;29;20474;-80
2022/02/22 04:33:25;;;;;;;20.02;9.20;;;;;;;10.40;66.51;93788.06;4944566;29;20039;-80
2022/02/22 04:35:50;;;;;;;13.48;8.02;;;;;;;10.33;67.76;93797.16;4928466;29;20039;-80
2022/02/22 04:38:16;;;;;;;15.98;7.78;;;;;;;10.21;67.81;93792.94;4948052;29;20141;-80
2022/02/22 04:40:41;;;;;;;18.98;7.20;;;;;;;10.14;68.39;93789.78;4955408;29;20038;-81
2022/02/22 04:43:07;;;;;;;20.70;5.80;;;;;;;10.00;68.31;93799.06;4952495;29;20039;-81
2022/02/22 04:45:32;;;;;;;12.00;5.60;;;;;;;9.87;69.25;93815.88;4915095;29;20027;-81
2022/02/22 04:47:58;;;;;;;7.53;4.97;;;;;;;9.78;69.20;93816.59;4957706;28;20031;-83
2022/02/22 04:50:24;;;;;;;8.25;5.45;;;;;;;9.73;70.02;93824.34;4944713;23;20046;-80
2022/02/22 04:52:49;;;;;;;10.65;6.03;;;;;;;9.65;70.36;93824.81;4964601;28;20038;-80
2022/02/22 04:55:15;;;;;;;9.77;5.28;;;;;;;9.68;69.83;93827.69;4932770;28;20552;-78
2022/02/22 04:57:40;;;;;;;17.13;6.00;;;;;;;9.71;70.87;93826.41;4961542;28;20109;-78
2022/02/22 05:00:12;;;;;;;9.90;6.43;;;;;;;9.66;70.27;93839.38;4929097;28;20034;-83
2022/02/22 05:02:37;;;;;;;11.98;7.22;;;;;;;9.69;71.10;93846.66;4943008;28;20039;-77
2022/02/22 05:05:03;;;;;;;14.23;7.63;;;;;;;9.69;70.38;93846.66;4928535;28;20061;-79
2022/02/22 05:07:29;;;;;;;14.05;6.65;;;;;;;9.73;70.98;93858.09;4962664;28;20035;-81
2022/02/22 05:09:54;;;;;;;8.27;6.18;;;;;;;9.77;69.94;93857.38;4945833;28;20027;-78
2022/02/22 05:12:20;;;;;;;10.30;6.35;;;;;;;9.77;69.82;93854.00;4964346;28;20043;-77
2022/02/22 05:14:45;;;;;;;10.10;6.60;;;;;;;9.81;69.91;93853.22;4946795;28;20027;-77
2022/02/22 05:17:11;;;;;;;10.07;5.28;;;;;;;9.89;69.83;93857.16;4946183;28;20043;-77
2022/02/22 05:19:36;;;;;;;7.00;5.53;;;;;;;9.92;70.22;93856.66;4961872;28;20135;-77
2022/02/22 05:22:02;;;;;;;9.27;5.15;;;;;;;9.98;70.04;93858.25;4945472;28;20031;-78
2022/02/22 05:24:27;;;;;;;5.13;4.57;;;;;;;9.98;69.17;93850.47;4963450;28;20026;-77
2022/02/22 05:26:53;;;;;;;6.05;4.03;;;;;;;9.89;68.34;93846.78;4945992;28;20035;-77
2022/02/22 05:29:19;;;;;;;6.75;4.32;;;;;;;9.80;68.95;93841.28;4969981;28;20384;-81
2022/02/22 05:31:44;;;;;;;3.60;3.28;;;;;;;9.83;69.90;93850.38;4948670;28;20039;-76
2022/02/22 05:34:10;;;;;;;7.03;4.22;;;;;;;9.87;70.35;93844.44;4964031;28;20585;-78
2022/02/22 05:36:35;;;;;;;8.40;4.93;;;;;;;9.92;70.17;93838.47;4946816;28;20507;-81
2022/02/22 05:39:01;;;;;;;7.18;4.57;;;;;;;9.98;69.90;93845.28;4946562;28;20054;-79
2022/02/22 05:41:26;;;;;;;7.80;4.90;;;;;;;10.03;69.99;93841.91;4949850;28;20034;-79
2022/02/22 05:43:51;;;;;;;10.02;6.18;;;;;;;10.03;70.43;93849.72;4966688;28;20523;-79
2022/02/22 05:46:19;;;;;;;5.90;4.63;;;;;;;10.09;69.77;93849.50;4951816;28;20034;-79
2022/02/22 05:48:44;;;;;;;11.88;5.53;;;;;;;10.13;69.98;93857.56;4934910;28;20102;-83
2022/02/22 05:51:10;;;;;;;19.20;11.68;;;;;;;10.18;69.23;93852.41;4957788;28;20114;-81
2022/02/22 05:53:36;;;;;;;18.83;10.07;;;;;;;10.18;68.86;93852.41;4934025;28;20039;-79
2022/02/22 05:56:02;;;;;;;9.95;6.82;;;;;;;10.15;68.29;93856.28;4934945;28;20039;-79
2022/02/22 05:58:27;;;;;;;9.82;5.82;;;;;;;10.10;68.36;93853.66;4952490;28;20046;-78
2022/02/22 06:00:53;;;;;;;5.38;4.88;;;;;;;10.13;67.88;93865.38;4984581;28;20031;-78
2022/02/22 06:03:18;;;;;;;6.30;4.63;;;;;;;10.06;68.14;93867.38;4972363;28;20046;-78
2022/02/22 06:05:44;;;;;;;8.57;4.18;;;;;;;10.10;68.72;93871.84;4969544;28;20430;-79
2022/02/22 06:08:09;;;;;;;6.00;4.38;;;;;;;10.10;68.36;93869.25;4950303;28;20030;-79
2022/02/22 06:10:34;;;;;;;7.45;5.30;;;;;;;10.16;68.38;93867.47;4966292;28;20037;-78
2022/02/22 06:13:00;;;;;;;13.73;6.53;;;;;;;10.18;68.56;93873.19;4951159;28;20045;-78
2022/02/22 06:15:25;;;;;;;9.18;5.78;;;;;;;10.18;68.13;93873.97;4949427;28;20042;-78
2022/02/22 06:17:51;;;;;;;21.58;10.73;;;;;;;10.21;68.04;93868.28;4949131;28;20039;-78
2022/02/22 06:20:16;;;;;;;18.23;10.38;;;;;;;10.21;68.11;93863.09;4947429;28;20470;-79
2022/02/22 06:22:42;;;;;;;16.77;9.10;;;;;;;10.31;68.32;93866.78;4931834;28;20118;-78
2022/02/22 06:25:08;;;;;;;13.75;10.13;;;;;;;10.35;68.24;93860.03;4949378;28;20028;-79
2022/02/22 06:27:47;;;;;;;15.55;11.30;;;;;;;10.37;67.47;93863.94;4948475;28;20043;-79
2022/02/22 06:30:13;;;;;;;14.85;10.07;;;;;;;10.43;67.45;93862.16;4933795;28;20039;-78
2022/02/22 06:32:38;;;;;;;15.10;11.02;;;;;;;10.47;66.71;93863.22;4950051;28;20046;-78
2022/02/22 06:35:04;;;;;;;21.02;11.57;;;;;;;10.55;66.69;93862.72;4947481;28;20030;-79
2022/02/22 06:37:30;;;;;;;12.15;9.60;;;;;;;10.52;66.88;93865.84;4964387;28;20109;-79
2022/02/22 06:39:55;;;;;;;13.35;8.88;;;;;;;10.50;66.52;93860.88;4936126;28;20034;-79
2022/02/22 06:42:21;;;;;;;10.82;7.78;;;;;;;10.60;65.59;93859.38;4935424;28;20039;-79
2022/02/22 06:44:46;;;;;;;6.63;5.70;;;;;;;10.63;64.77;93858.88;4949106;28;20030;-79
2022/02/22 06:47:12;;;;;;;9.05;6.97;;;;;;;10.68;65.01;93856.28;4949290;28;20043;-79
2022/02/22 06:49:37;;;;;;;7.07;6.30;;;;;;;10.73;64.75;93857.06;4948482;28;20028;-79
2022/02/22 06:52:03;;;;;;;11.18;6.53;;;;;;;10.78;64.40;93856.31;4950100;28;20065;-79
2022/02/22 06:54:29;;;;;;;10.95;7.47;;;;;;;10.88;63.67;93858.94;4974156;28;20046;-78
2022/02/22 06:56:54;;;;;;;12.50;8.05;;;;;;;10.93;64.18;93858.97;4952127;28;20099;-79
2022/02/22 06:59:20;;;;;;;8.35;6.38;;;;;;;10.99;64.04;93865.72;4969911;28;20062;-78
2022/02/22 07:01:45;;;;;;;7.07;5.82;;;;;;;11.05;63.77;93856.09;4959382;28;20391;-79
2022/02/22 07:04:11;;;;;;;9.15;5.88;;;;;;;11.12;63.28;93862.63;4966869;28;20038;-79
2022/02/22 07:06:36;;;;;;;9.48;5.93;;;;;;;11.20;63.02;93858.72;4950285;28;20045;-79
2022/02/22 07:09:01;;;;;;;10.43;6.22;;;;;;;11.34;62.45;93859.00;4949443;28;20035;-79
2022/02/22 07:11:27;;;;;;;10.07;8.52;;;;;;;11.37;63.17;93854.06;4950572;28;20038;-79
2022/02/22 07:13:52;;;;;;;11.05;9.25;;;;;;;11.40;63.45;93853.56;4949647;28;20039;-80
2022/02/22 07:16:18;;;;;;;19.77;12.75;;;;;;;11.47;64.00;93848.09;4968639;28;20039;-79
2022/02/22 07:18:43;;;;;;;24.65;15.25;;;;;;;11.53;63.67;93854.06;4946313;28;20396;-79
2022/02/22 07:21:09;;;;;;;21.55;14.30;;;;;;;11.59;63.82;93858.25;4968930;28;20046;-79
2022/02/22 07:23:34;;;;;;;32.90;17.27;;;;;;;11.69;64.07;93866.03;4968547;28;20031;-79
2022/02/22 07:26:00;;;;;;;32.13;17.45;;;;;;;11.74;63.82;93871.25;4950474;28;20039;-79
2022/02/22 07:28:25;;;;;;;21.73;14.40;;;;;;;11.80;63.67;93864.25;4916703;28;20038;-79
2022/02/22 07:30:51;;;;;;;17.42;12.27;;;;;;;11.83;63.32;93861.91;4950002;28;20460;-79
2022/02/22 07:33:16;;;;;;;24.85;9.38;;;;;;;11.89;63.11;93862.69;4933072;28;20030;-80
2022/02/22 07:35:41;;;;;;;13.15;8.70;;;;;;;11.91;63.02;93874.41;4967240;28;20031;-80
2022/02/22 07:38:07;;;;;;;16.85;8.73;;;;;;;11.95;62.45;93869.44;4966594;28;20031;-80
2022/02/22 07:40:32;;;;;;;19.08;11.85;;;;;;;11.93;61.85;93884.56;4968769;28;20042;-80
2022/02/22 07:42:58;;;;;;;13.80;9.65;;;;;;;11.95;62.05;93870.22;4966313;28;20158;-80
2022/02/22 07:45:23;;;;;;;16.80;10.93;;;;;;;11.92;62.08;93878.56;4952427;28;20042;-79
2022/02/22 07:47:49;;;;;;;17.13;10.73;;;;;;;11.94;62.39;93878.31;4935260;28;20079;-80
2022/02/22 07:50:14;;;;;;;17.85;11.50;;;;;;;11.93;62.83;93871.53;4933812;28;20395;-80
2022/02/22 07:52:40;;;;;;;22.75;14.63;;;;;;;11.94;62.70;93879.09;4951101;28;20126;-79
2022/02/22 07:55:06;;;;;;;30.38;19.42;;;;;;;11.93;62.25;93882.72;4965913;28;20041;-80
2022/02/22 07:57:31;;;;;;;33.47;21.85;;;;;;;12.03;62.59;93881.94;4933371;28;20035;-79
2022/02/22 07:59:57;;;;;;;31.40;20.60;;;;;;;12.13;61.95;93881.91;4948700;28;20114;-80
2022/02/22 08:02:23;;;;;;;32.20;20.75;;;;;;;12.17;62.43;93879.56;4935585;28;20039;-79
2022/02/22 08:04:48;;;;;;;28.23;20.58;;;;;;;12.32;61.80;93885.53;4948046;28;20081;-78
2022/02/22 08:07:16;;;;;;;38.60;19.52;;;;;;;12.37;61.85;93887.34;4932177;28;20041;-79
2022/02/22 08:09:42;;;;;;;29.20;18.55;;;;;;;12.46;60.98;93874.53;4965865;28;20074;-78
2022/02/22 08:12:08;;;;;;;28.77;18.13;;;;;;;12.46;61.59;93880.53;4947464;28;20054;-79
2022/02/22 08:14:34;;;;;;;30.08;21.00;;;;;;;12.54;61.26;93887.81;4949829;28;20071;-79
2022/02/22 08:17:00;;;;;;;32.03;21.00;;;;;;;12.69;60.10;93884.38;4964363;28;20023;-79
2022/02/22 08:19:28;;;;;;;33.42;22.42;;;;;;;12.74;59.74;93875.75;4964712;28;20046;-79
2022/02/22 08:21:54;;;;;;;23.95;17.75;;;;;;;12.75;59.21;93878.09;4949990;28;20039;-79
2022/02/22 08:24:23;;;;;;;29.25;21.13;;;;;;;12.84;59.36;93886.13;4950014;28;20035;-80
2022/02/22 08:26:49;;;;;;;32.20;21.73;;;;;;;12.92;59.34;93890.78;4936664;28;20027;-80
2022/02/22 08:29:14;;;;;;;31.90;21.98;;;;;;;12.96;58.98;93898.88;4966706;28;20038;-79
2022/02/22 08:31:40;;;;;;;30.05;20.25;;;;;;;12.98;58.32;93894.94;4948711;28;20615;-80
2022/02/22 08:34:05;;;;;;;30.02;20.55;;;;;;;13.00;58.52;93895.44;4966596;28;20035;-79
2022/02/22 08:36:31;;;;;;;23.50;18.05;;;;;;;13.09;58.62;93899.06;4933075;28;20067;-79
2022/02/22 08:38:56;;;;;;;27.55;18.38;;;;;;;13.07;58.38;93901.16;4948085;28;20031;-78
2022/02/22 08:41:22;;;;;;;21.88;13.48;;;;;;;13.11;57.49;93907.41;4966028;28;20460;-78
2022/02/22 08:43:49;;;;;;;15.50;9.68;;;;;;;13.22;57.27;93913.38;4948348;28;20117;-79
2022/02/22 08:46:14;;;;;;;17.20;12.38;;;;;;;13.28;57.02;93909.69;4950534;28;20042;-78
2022/02/22 08:48:40;;;;;;;17.38;10.38;;;;;;;13.40;57.09;93911.97;4967601;28;20050;-78
2022/02/22 08:51:05;;;;;;;12.60;8.88;;;;;;;13.50;56.49;93919.72;4963033;28;20039;-78
2022/02/22 08:53:31;;;;;;;13.68;9.57;;;;;;;13.57;55.91;93919.44;4946813;28;20384;-78
2022/02/22 08:55:59;;;;;;;21.83;14.23;;;;;;;13.61;55.08;93929.06;4929758;28;20682;-78
2022/02/22 08:58:24;;;;;;;20.13;16.85;;;;;;;13.54;54.83;93923.38;4930819;28;20038;-79
2022/02/22 09:00:50;;;;;;;10.05;7.10;;;;;;;13.48;54.97;93921.84;4945775;28;20439;-79
2022/02/22 09:03:15;;;;;;;7.10;4.70;;;;;;;13.30;54.46;93925.84;4931011;28;20101;-79
2022/02/22 09:05:41;;;;;;;9.35;5.38;;;;;;;12.90;56.34;93938.03;4949132;28;20453;-77
2022/02/22 09:08:06;;;;;;;15.40;8.02;;;;;;;12.63;58.16;93953.25;4947593;28;20423;-79
2022/02/22 09:10:31;;;;;;;14.02;9.23;;;;;;;12.35;57.88;93952.00;4940799;28;20039;-79
2022/02/22 09:12:57;;;;;;;15.45;9.82;;;;;;;11.96;57.86;93957.75;4947969;28;20161;-79
2022/02/22 09:15:24;;;;;;;8.65;7.75;;;;;;;11.62;58.08;93962.66;4946617;28;20030;-79
2022/02/22 09:17:50;;;;;;;9.23;8.20;;;;;;;11.36;58.06;93964.41;4948214;28;20493;-79
2022/02/22 09:20:17;;;;;;;10.20;8.10;;;;;;;11.10;58.68;93962.78;4949140;28;20043;-79
2022/02/22 09:22:43;;;;;;;7.15;6.55;;;;;;;10.96;58.78;93970.28;4949380;28;20643;-79
2022/02/22 09:25:10;;;;;;;6.88;6.07;;;;;;;10.73;58.59;93968.09;4932358;28;20123;-79
2022/02/22 09:27:37;;;;;;;13.90;5.47;;;;;;;10.49;59.11;93972.91;4972302;28;20027;-79
2022/02/22 09:30:04;;;;;;;5.28;4.78;;;;;;;10.19;59.86;93978.66;4948624;28;20063;-78
2022/02/22 09:32:29;;;;;;;9.60;7.10;;;;;;;9.95;60.66;93978.22;4950207;28;20023;-78
2022/02/22 09:34:55;;;;;;;8.00;4.18;;;;;;;9.77;60.58;93984.59;4933805;28;20602;-78
2022/02/22 09:37:20;;;;;;;5.35;4.85;;;;;;;9.60;60.89;93981.31;4949476;28;20031;-79
2022/02/22 09:39:46;;;;;;;7.38;5.60;;;;;;;9.41;61.13;93988.63;4965484;28;20098;-78
2022/02/22 09:42:11;;;;;;;8.90;5.07;;;;;;;9.14;61.93;93998.22;4965223;28;20026;-78
2022/02/22 09:44:37;;;;;;;6.18;5.28;;;;;;;8.95;62.46;94001.13;4932101;28;20039;-78
2022/02/22 09:47:03;;;;;;;16.83;9.32;;;;;;;8.94;63.19;94012.47;4916994;28;20031;-78
2022/02/22 09:49:29;;;;;;;10.65;8.15;;;;;;;8.89;62.30;94012.44;4948215;28;20031;-79
2022/02/22 09:51:54;;;;;;;23.02;15.75;;;;;;;8.77;63.16;94009.16;4972178;28;20503;-79
2022/02/22 09:54:21;;;;;;;21.60;15.55;;;;;;;8.63;62.57;94018.31;4931767;28;20094;-78
2022/02/22 09:56:46;;;;;;;9.00;7.97;;;;;;;8.53;61.95;94018.94;4946205;28;20560;-78
2022/02/22 09:59:12;;;;;;;13.15;7.68;;;;;;;8.44;62.09;94010.00;4945735;28;20114;-79
2022/02/22 10:01:41;;;;;;;4.45;3.97;;;;;;;8.26;62.72;94025.75;4946636;28;20027;-78
2022/02/22 10:04:07;;;;;;;11.57;8.30;;;;;;;8.20;63.58;94030.09;4955331;28;20093;-79
2022/02/22 10:06:32;;;;;;;9.07;5.82;;;;;;;8.07;63.63;94018.25;4947282;28;20034;-80
2022/02/22 10:08:58;;;;;;;5.13;4.63;;;;;;;7.72;65.00;94028.78;4934788;28;20070;-78
2022/02/22 10:11:23;;;;;;;8.05;5.22;;;;;;;7.48;66.57;94033.31;4947035;28;20050;-79
2022/02/22 10:13:49;;;;;;;7.72;6.65;;;;;;;7.34;67.39;94026.06;4931509;28;20419;-79
2022/02/22 10:16:14;;;;;;;26.50;12.57;;;;;;;7.24;67.43;94036.97;4946697;28;20041;-79
2022/02/22 10:18:52;;;;;;;17.58;12.27;;;;;;;7.08;68.73;94053.22;4952474;28;20031;-78
2022/02/22 10:21:18;;;;;;;13.90;9.73;;;;;;;6.89;67.75;94049.97;4930737;28;20123;-78
2022/02/22 10:23:44;;;;;;;20.33;13.63;;;;;;;6.72;68.02;94044.72;4931374;28;20514;-78
2022/02/22 10:26:21;;;;;;;7.95;6.78;;;;;;;6.47;68.01;94036.41;4947636;28;20096;-78
2022/02/22 10:28:47;;;;;;;7.82;6.30;;;;;;;6.26;68.85;94042.94;4972043;28;20031;-78
2022/02/22 10:31:12;;;;;;;21.30;15.23;;;;;;;6.06;70.62;94039.88;4963418;28;20974;-78
2022/02/22 10:33:44;;;;;;;27.17;17.88;;;;;;;6.09;70.74;94060.88;4947397;28;20035;-78
2022/02/22 10:36:17;;;;;;;26.45;18.02;;;;;;;6.08;70.50;94072.19;4946780;28;20031;-78
2022/02/22 10:38:43;;;;;;;33.90;21.77;;;;;;;6.12;70.31;94067.38;4961880;28;20420;-78
2022/02/22 10:41:16;;;;;;;14.10;8.57;;;;;;;6.09;70.30;94065.25;4959475;28;20518;-78
2022/02/22 10:43:55;;;;;;;8.82;5.93;;;;;;;6.06;69.98;94068.28;4932221;28;20046;-78
2022/02/22 10:46:32;;;;;;;21.02;11.20;;;;;;;5.97;69.62;94078.91;4938732;28;20038;-78
2022/02/22 10:49:03;;;;;;;11.82;7.63;;;;;;;5.99;71.32;94076.88;4944888;28;20082;-78
2022/02/22 10:51:38;;;;;;;29.67;17.60;;;;;;;6.09;70.33;94076.34;4946461;28;20031;-79
2022/02/22 10:54:04;;;;;;;14.23;8.65;;;;;;;6.14;69.22;94073.88;4946337;28;20458;-78
2022/02/22 10:56:30;;;;;;;8.18;5.45;;;;;;;6.12;68.68;94080.28;4946463;28;20065;-78
2022/02/22 10:58:57;;;;;;;6.57;4.75;;;;;;;6.02;68.51;94075.69;4946102;28;20032;-78
2022/02/22 11:01:23;;;;;;;19.20;12.15;;;;;;;5.98;69.36;94080.47;4955284;28;20035;-78
2022/02/22 11:03:49;;;;;;;15.48;9.02;;;;;;;6.03;69.50;94079.81;4977935;28;20098;-78
2022/02/22 11:06:15;;;;;;;13.65;8.68;;;;;;;6.05;69.85;94079.59;4964210;28;20031;-78
2022/02/22 11:08:42;;;;;;;11.90;8.77;;;;;;;6.07;70.42;94086.13;4953007;28;20038;-78
2022/02/22 11:11:13;;;;;;;9.38;7.25;;;;;;;6.17;69.28;94083.75;4930870;28;20851;-78
2022/02/22 11:13:40;;;;;;;21.10;7.18;;;;;;;6.20;68.63;94087.72;4930677;28;20148;-78
2022/02/22 11:16:13;;;;;;;11.60;7.47;;;;;;;6.19;69.46;94079.19;4946764;28;20493;-78
2022/02/22 11:18:46;;;;;;;5.90;5.28;;;;;;;6.26;68.12;94084.22;4946425;28;20035;-78
2022/02/22 11:21:11;;;;;;;6.53;5.28;;;;;;;6.32;69.04;94083.34;4963916;28;20035;-78
2022/02/22 11:23:37;;;;;;;9.80;7.03;;;;;;;6.38;69.40;94092.78;4930529;28;20039;-78